Time;durP1;ratioP1;P1;durP2;ratioP2;P2;SDS_P1;SDS_P2;PMS_P1;PMS_P2;Temp;Humidity;BMP_temperature;BMP_pressure;BME280_temperature;BME280_humidity;BME280_pressure;Samples;Min_cycle;Max_cycle;Signal;HPM_P1;HPM_P2
2021/12/24 00:01:50;;;;;;;7.45;3.20;;;10.90;99.90;;;;;;5013175;28;20080;-72
2021/12/24 00:04:17;;;;;;;8.48;2.85;;;10.80;99.90;;;;;;5013423;28;20383;-73
2021/12/24 00:06:43;;;;;;;9.63;4.57;;;10.80;99.90;;;;;;5013066;28;20025;-73
2021/12/24 00:09:09;;;;;;;7.03;3.50;;;10.80;99.90;;;;;;5013261;28;20026;-73
2021/12/24 00:11:36;;;;;;;5.65;3.42;;;10.80;99.90;;;;;;5012993;28;20033;-73
2021/12/24 00:14:06;;;;;;;6.05;3.47;;;10.80;99.90;;;;;;5011539;28;20505;-73
2021/12/24 00:16:40;;;;;;;6.15;3.38;;;10.80;99.90;;;;;;5013029;28;20026;-73
2021/12/24 00:19:21;;;;;;;4.30;2.80;;;10.80;99.90;;;;;;5013401;28;20021;-73
2021/12/24 00:35:35;;;;;;;4.68;2.90;;;10.90;99.90;;;;;;5012791;28;20045;-73
2021/12/24 00:38:03;;;;;;;4.13;2.50;;;10.80;99.90;;;;;;5013085;28;20082;-74
2021/12/24 00:40:39;;;;;;;5.57;2.90;;;10.80;99.90;;;;;;5012568;28;20541;-73
2021/12/24 00:43:05;;;;;;;5.70;2.78;;;10.80;99.90;;;;;;5013068;28;20453;-73
2021/12/24 00:45:34;;;;;;;5.80;3.00;;;10.70;99.90;;;;;;5012228;28;20419;-73
2021/12/24 00:48:02;;;;;;;5.88;2.40;;;10.70;99.90;;;;;;5012559;28;20100;-73
2021/12/24 00:50:47;;;;;;;5.05;2.97;;;10.70;99.90;;;;;;5012800;28;20028;-73
2021/12/24 00:56:02;;;;;;;5.97;2.60;;;10.80;99.90;;;;;;5012804;28;20466;-72
2021/12/24 00:58:29;;;;;;;6.65;2.78;;;10.70;99.90;;;;;;5012144;28;20117;-74
2021/12/24 01:00:56;;;;;;;8.00;2.92;;;10.70;99.90;;;;;;5012262;28;20026;-72
2021/12/24 01:03:22;;;;;;;7.85;2.67;;;10.70;99.90;;;;;;5012060;28;20029;-73
2021/12/24 01:05:48;;;;;;;4.05;2.70;;;10.70;99.90;;;;;;5012070;28;20478;-73
2021/12/24 01:08:15;;;;;;;7.30;2.65;;;10.70;99.90;;;;;;4994353;28;20030;-72
2021/12/24 01:10:49;;;;;;;3.88;2.28;;;10.70;99.90;;;;;;5011978;28;20022;-73
2021/12/24 01:13:16;;;;;;;4.32;2.70;;;10.70;99.90;;;;;;5012140;28;20366;-73
2021/12/24 01:16:15;;;;;;;5.32;2.47;;;10.80;99.90;;;;;;5011885;28;20489;-73
2021/12/24 01:19:11;;;;;;;2.65;1.67;;;10.70;99.90;;;;;;5011440;28;20041;-72
2021/12/24 01:23:57;;;;;;;6.25;3.00;;;10.70;99.90;;;;;;5012629;28;20026;-73
2021/12/24 01:29:39;;;;;;;;;;;10.70;99.90;;;;;;5012575;28;20401;-73
2021/12/24 01:37:58;;;;;;;6.43;2.78;;;10.60;99.90;;;;;;5013744;28;20072;-73
2021/12/24 01:42:53;;;;;;;5.18;2.72;;;10.60;99.90;;;;;;5015728;28;20026;-73
2021/12/24 01:45:28;;;;;;;5.75;2.78;;;10.70;99.90;;;;;;5015495;28;20104;-73
2021/12/24 01:47:58;;;;;;;8.07;3.03;;;10.60;99.90;;;;;;4997941;28;20113;-73
2021/12/24 01:50:27;;;;;;;5.93;3.20;;;10.60;99.90;;;;;;5016007;28;20355;-73
2021/12/24 01:52:55;;;;;;;7.28;2.85;;;10.60;99.90;;;;;;4994135;28;20046;-73
2021/12/24 01:55:22;;;;;;;8.00;3.03;;;10.50;99.90;;;;;;4995862;28;20032;-73
2021/12/24 01:57:48;;;;;;;9.07;2.92;;;10.50;99.90;;;;;;4994484;28;20034;-73
2021/12/24 02:00:37;;;;;;;5.90;2.65;;;10.50;99.90;;;;;;4995769;28;20157;-73
2021/12/24 02:03:05;;;;;;;3.90;2.53;;;10.50;99.90;;;;;;4996247;28;20301;-73
2021/12/24 02:05:31;;;;;;;5.50;2.92;;;10.50;99.90;;;;;;4994177;28;20121;-73
2021/12/24 02:07:59;;;;;;;4.53;2.40;;;10.60;99.90;;;;;;4978413;28;20026;-73
2021/12/24 02:10:26;;;;;;;4.40;2.67;;;10.50;99.90;;;;;;4995465;28;20034;-73
2021/12/24 02:12:54;;;;;;;3.90;2.47;;;10.50;99.90;;;;;;4995658;28;20426;-73
2021/12/24 02:15:39;;;;;;;;;;;10.60;99.90;;;;;;4996303;28;20042;-72
2021/12/24 02:29:05;;;;;;;5.00;2.50;;;10.40;99.90;;;;;;4995850;28;20034;-74
2021/12/24 02:31:31;;;;;;;5.63;2.60;;;10.40;99.90;;;;;;4977923;28;20081;-73
2021/12/24 02:33:57;;;;;;;5.47;3.30;;;10.50;99.90;;;;;;4995507;28;20045;-73
2021/12/24 02:36:23;;;;;;;4.85;2.67;;;10.50;99.90;;;;;;4995235;28;20320;-73
2021/12/24 02:38:50;;;;;;;14.60;3.30;;;10.50;99.90;;;;;;4994969;28;20026;-73
2021/12/24 02:41:20;;;;;;;6.50;2.60;;;10.50;99.90;;;;;;4995211;28;20034;-73
2021/12/24 02:43:47;;;;;;;4.47;2.58;;;10.50;99.90;;;;;;4994894;28;20030;-73
2021/12/24 02:46:26;;;;;;;3.45;2.10;;;10.50;99.90;;;;;;4994940;28;20046;-74
2021/12/24 02:54:15;;;;;;;5.38;2.95;;;10.40;99.90;;;;;;5012605;28;20133;-73
2021/12/24 02:56:47;;;;;;;7.40;2.75;;;10.40;99.90;;;;;;5014295;28;20489;-73
2021/12/24 02:59:15;;;;;;;5.60;2.97;;;10.40;99.90;;;;;;4996550;28;20030;-73
2021/12/24 03:01:48;;;;;;;6.07;3.50;;;10.40;99.90;;;;;;5014239;28;20033;-73
2021/12/24 03:04:15;;;;;;;6.10;2.90;;;10.30;99.90;;;;;;5014240;28;20445;-73
2021/12/24 03:06:48;;;;;;;4.43;2.53;;;10.30;99.90;;;;;;5014114;28;20109;-73
2021/12/24 03:09:16;;;;;;;3.95;2.65;;;10.20;99.90;;;;;;5014406;28;20577;-73
2021/12/24 03:11:44;;;;;;;5.82;3.10;;;10.20;99.90;;;;;;5013968;28;20026;-73
2021/12/24 03:14:11;;;;;;;5.90;2.70;;;10.10;99.90;;;;;;5014472;28;20473;-73
2021/12/24 03:16:39;;;;;;;5.93;2.90;;;10.10;99.90;;;;;;4996148;28;20457;-74
2021/12/24 03:19:08;;;;;;;5.15;2.67;;;10.10;99.90;;;;;;5013896;28;20109;-73
2021/12/24 03:21:45;;;;;;;5.30;2.67;;;10.20;99.90;;;;;;5013736;28;20084;-73
2021/12/24 03:26:40;;;;;;;6.10;3.07;;;10.20;99.90;;;;;;5013587;28;20045;-71
2021/12/24 03:29:10;;;;;;;5.90;2.83;;;10.10;99.90;;;;;;4995668;28;20096;-71
2021/12/24 03:31:37;;;;;;;4.53;2.58;;;10.20;99.90;;;;;;5013395;28;20458;-73
2021/12/24 03:34:09;;;;;;;4.95;2.15;;;10.20;99.90;;;;;;4996331;28;20107;-72
2021/12/24 03:36:35;;;;;;;12.30;2.83;;;10.20;99.90;;;;;;4995457;28;20053;-72
2021/12/24 03:39:04;;;;;;;7.03;2.90;;;10.20;99.90;;;;;;5013361;28;20080;-72
2021/12/24 03:41:30;;;;;;;4.88;2.80;;;10.20;99.90;;;;;;4995566;28;20364;-72
2021/12/24 03:43:56;;;;;;;4.68;2.55;;;10.10;99.90;;;;;;5013636;28;20022;-72
2021/12/24 03:46:31;;;;;;;7.17;2.70;;;10.10;99.90;;;;;;5013663;28;20080;-72
2021/12/24 03:49:00;;;;;;;4.60;2.53;;;10.10;99.90;;;;;;5013551;28;20733;-72
2021/12/24 03:51:40;;;;;;;6.50;2.40;;;10.10;99.90;;;;;;5011730;28;20032;-70
2021/12/24 03:56:50;;;;;;;6.28;2.70;;;10.10;99.90;;;;;;5003515;28;20052;-70
2021/12/24 03:59:17;;;;;;;7.65;3.10;;;10.20;99.90;;;;;;4998374;28;20409;-72
2021/12/24 04:01:43;;;;;;;5.37;2.87;;;10.20;99.90;;;;;;4986409;28;20161;-73
2021/12/24 04:04:09;;;;;;;4.35;2.78;;;10.20;99.90;;;;;;5001480;28;20734;-73
2021/12/24 04:06:36;;;;;;;7.93;2.90;;;10.10;99.90;;;;;;5002837;28;20057;-73
2021/12/24 04:09:06;;;;;;;6.53;2.60;;;10.10;99.90;;;;;;5003236;28;20019;-69
2021/12/24 04:11:33;;;;;;;5.47;2.67;;;10.10;99.90;;;;;;5003247;28;20026;-73
2021/12/24 04:14:00;;;;;;;5.82;3.10;;;10.10;99.90;;;;;;5002980;28;20128;-72
2021/12/24 04:16:28;;;;;;;6.78;2.97;;;10.10;99.90;;;;;;4995559;28;20089;-73
2021/12/24 04:26:54;;;;;;;4.45;3.00;;;10.10;99.90;;;;;;5005740;28;20044;-72
2021/12/24 04:29:21;;;;;;;8.90;3.00;;;10.00;99.90;;;;;;5012456;28;20029;-72
2021/12/24 04:31:55;;;;;;;;;;;10.00;99.90;;;;;;5011454;28;20096;-73
2021/12/24 04:34:26;;;;;;;5.45;2.75;;;10.00;99.90;;;;;;5012474;28;20377;-71
2021/12/24 04:37:40;;;;;;;7.65;3.03;;;10.00;99.90;;;;;;5012602;28;20025;-71
2021/12/24 04:50:58;;;;;;;4.35;2.63;;;10.10;99.90;;;;;;5012161;28;20062;-73
2021/12/24 04:51:10;;;;;;;5.00;2.67;;;10.00;99.90;;;;;;5012303;28;20092;-72
2021/12/24 05:02:08;;;;;;;5.97;2.42;;;10.10;99.90;;;;;;5012291;28;20048;-74
2021/12/24 05:04:37;;;;;;;3.72;2.10;;;10.10;99.90;;;;;;5012438;28;20026;-74
2021/12/24 05:07:21;;;;;;;6.75;2.22;;;10.10;99.90;;;;;;5012148;28;20033;-72
2021/12/24 05:09:47;;;;;;;5.10;2.00;;;10.20;99.90;;;;;;4997339;28;20068;-72
2021/12/24 05:12:14;;;;;;;;;;;10.20;99.90;;;;;;5013821;28;20033;-73
2021/12/24 05:14:41;;;;;;;4.28;2.08;;;10.30;99.90;;;;;;4998551;28;19914;-72
2021/12/24 05:22:30;;;;;;;3.50;2.15;;;10.40;99.90;;;;;;5016335;28;20084;-73
2021/12/24 05:24:57;;;;;;;3.92;1.80;;;10.50;99.90;;;;;;5016533;28;20070;-73
2021/12/24 05:27:25;;;;;;;8.88;2.10;;;10.40;99.90;;;;;;5016344;28;20443;-73
2021/12/24 05:29:51;;;;;;;7.40;2.20;;;10.40;99.90;;;;;;5015034;28;20184;-72
2021/12/24 05:32:17;;;;;;;5.87;2.00;;;10.40;99.90;;;;;;5015836;28;20021;-73
2021/12/24 05:34:43;;;;;;;5.93;2.10;;;10.50;99.90;;;;;;5015882;28;20431;-72
2021/12/24 05:37:10;;;;;;;5.70;2.40;;;10.50;99.90;;;;;;5016112;28;20030;-72
2021/12/24 05:39:36;;;;;;;5.78;2.45;;;10.60;99.90;;;;;;4998028;28;20112;-73
2021/12/24 05:42:04;;;;;;;6.97;2.57;;;10.50;99.90;;;;;;5014224;28;20136;-72
2021/12/24 05:44:32;;;;;;;4.22;2.25;;;10.40;99.90;;;;;;5015908;28;20366;-73
2021/12/24 05:46:59;;;;;;;7.95;2.38;;;10.30;99.90;;;;;;4998695;28;20037;-72
2021/12/24 05:49:25;;;;;;;5.82;3.20;;;10.30;99.90;;;;;;5014060;28;20107;-72
2021/12/24 05:51:52;;;;;;;4.40;2.45;;;10.20;99.90;;;;;;5014994;28;20041;-72
2021/12/24 05:54:20;;;;;;;3.87;2.27;;;10.10;99.90;;;;;;5015191;28;20187;-73
2021/12/24 05:56:47;;;;;;;3.97;1.73;;;10.10;99.90;;;;;;5015236;28;20109;-72
2021/12/24 05:59:13;;;;;;;6.30;2.53;;;10.20;99.90;;;;;;5014789;28;20033;-72
2021/12/24 06:01:41;;;;;;;5.45;2.70;;;10.20;99.90;;;;;;5015588;28;20080;-72
2021/12/24 06:04:06;;;;;;;;;;;10.10;99.90;;;;;;5015952;28;20021;-72
2021/12/24 06:06:32;;;;;;;5.53;2.00;;;10.20;99.90;;;;;;5015224;28;19906;-72
2021/12/24 06:08:59;;;;;;;8.35;2.00;;;10.10;99.90;;;;;;5015324;28;20275;-72
2021/12/24 06:11:25;;;;;;;7.18;2.05;;;10.20;99.90;;;;;;5014932;28;20101;-77
2021/12/24 06:13:55;;;;;;;6.63;2.75;;;10.20;99.90;;;;;;5012579;28;20129;-71
2021/12/24 06:16:21;;;;;;;3.55;1.90;;;10.20;99.90;;;;;;5010887;28;20509;-70
2021/12/24 06:18:48;;;;;;;6.47;2.60;;;10.20;99.90;;;;;;5015298;28;20026;-67
2021/12/24 06:21:15;;;;;;;4.95;2.20;;;10.30;99.90;;;;;;5014435;28;20026;-71
2021/12/24 06:23:43;;;;;;;;;;;10.30;99.90;;;;;;5015240;28;20086;-70
2021/12/24 06:26:10;;;;;;;6.25;2.50;;;10.20;99.90;;;;;;5014573;28;19993;-68
2021/12/24 06:28:36;;;;;;;6.45;2.50;;;10.40;99.90;;;;;;4996810;28;20550;-68
2021/12/24 06:31:03;;;;;;;6.72;2.40;;;10.40;99.90;;;;;;5013146;28;20524;-68
2021/12/24 06:33:30;;;;;;;;;;;10.40;99.90;;;;;;5013466;28;20095;-68
2021/12/24 06:35:57;;;;;;;4.97;2.17;;;10.40;99.90;;;;;;4996813;28;20020;-68
2021/12/24 06:38:24;;;;;;;6.00;2.40;;;10.60;99.90;;;;;;5013085;28;20030;-68
2021/12/24 06:40:50;;;;;;;3.75;2.30;;;10.80;99.90;;;;;;5014602;28;20171;-69
2021/12/24 06:43:16;;;;;;;5.70;2.22;;;10.90;99.90;;;;;;5014669;28;20514;-68
2021/12/24 06:45:42;;;;;;;6.57;2.35;;;11.00;99.90;;;;;;5013709;28;20026;-69
2021/12/24 06:48:09;;;;;;;11.15;2.58;;;11.30;99.90;;;;;;5014362;28;20379;-69
2021/12/24 06:50:36;;;;;;;5.63;2.20;;;11.60;99.90;;;;;;5014455;28;20135;-69
2021/12/24 06:53:02;;;;;;;;;;;12.00;99.90;;;;;;4996610;28;20498;-70
2021/12/24 06:55:29;;;;;;;5.93;2.50;;;12.10;99.90;;;;;;5014130;28;19912;-69
2021/12/24 06:57:55;;;;;;;6.07;1.88;;;12.00;99.90;;;;;;5014141;28;20442;-69
2021/12/24 07:00:23;;;;;;;3.80;1.85;;;12.10;99.90;;;;;;5014653;28;20033;-69
2021/12/24 07:02:50;;;;;;;6.80;2.22;;;12.40;99.90;;;;;;5014117;28;20029;-69
2021/12/24 07:05:16;;;;;;;5.93;2.00;;;12.90;99.90;;;;;;5014252;28;20057;-69
2021/12/24 07:07:43;;;;;;;3.85;1.90;;;13.40;99.90;;;;;;5014244;28;20053;-68
2021/12/24 07:10:09;;;;;;;3.05;1.92;;;14.00;99.90;;;;;;5014177;28;20084;-67
2021/12/24 07:12:35;;;;;;;5.72;2.15;;;14.40;99.90;;;;;;5013791;28;20363;-68
2021/12/24 07:15:06;;;;;;;7.80;2.15;;;15.10;99.90;;;;;;4994672;28;20431;-68
2021/12/24 07:17:33;;;;;;;5.07;1.80;;;15.60;99.40;;;;;;4994384;28;20085;-68
2021/12/24 07:19:59;;;;;;;5.47;2.28;;;15.70;98.00;;;;;;4994075;28;20493;-68
2021/12/24 07:22:26;;;;;;;3.45;2.13;;;16.00;98.20;;;;;;4994512;28;20340;-69
2021/12/24 07:24:52;;;;;;;4.68;2.00;;;16.00;97.90;;;;;;4976904;28;20034;-66
2021/12/24 07:27:19;;;;;;;5.43;1.50;;;16.10;97.80;;;;;;4992753;28;20022;-67
2021/12/24 07:29:45;;;;;;;4.68;1.70;;;16.30;98.00;;;;;;4994088;28;20054;-67
2021/12/24 07:32:11;;;;;;;4.18;1.98;;;16.80;97.30;;;;;;4993906;28;20376;-66
2021/12/24 07:34:37;;;;;;;7.35;1.90;;;17.70;96.30;;;;;;4993392;28;20036;-67
2021/12/24 07:37:03;;;;;;;3.72;1.65;;;18.30;95.50;;;;;;4993750;28;20101;-67
2021/12/24 07:39:29;;;;;;;2.80;1.50;;;18.30;94.40;;;;;;4993697;28;20030;-68
2021/12/24 07:41:56;;;;;;;6.57;1.58;;;17.90;94.90;;;;;;4993869;28;20045;-68
2021/12/24 07:44:22;;;;;;;6.72;1.55;;;18.30;94.40;;;;;;4993504;28;20129;-67
2021/12/24 07:46:52;;;;;;;6.00;1.67;;;18.50;94.40;;;;;;4993692;28;20073;-67
2021/12/24 07:52:08;;;;;;;6.05;1.98;;;17.70;94.50;;;;;;4993516;28;20033;-67
2021/12/24 07:54:37;;;;;;;7.30;1.85;;;17.20;95.30;;;;;;4993240;28;20050;-67
2021/12/24 07:57:04;;;;;;;4.97;2.20;;;17.00;95.60;;;;;;4993435;28;20019;-67
2021/12/24 07:59:30;;;;;;;6.03;2.00;;;16.60;96.00;;;;;;4993360;28;20030;-67
2021/12/24 08:01:57;;;;;;;4.78;1.83;;;16.70;96.40;;;;;;4991700;28;20045;-67
2021/12/24 08:04:24;;;;;;;3.47;1.95;;;16.80;97.00;;;;;;4976054;28;20030;-67
2021/12/24 08:06:50;;;;;;;5.28;2.13;;;16.60;97.00;;;;;;4975447;28;20127;-67
2021/12/24 08:09:16;;;;;;;5.10;2.10;;;16.50;97.00;;;;;;4993275;28;20045;-68
2021/12/24 08:11:42;;;;;;;4.13;2.37;;;16.50;97.00;;;;;;4991831;28;20062;-68
2021/12/24 08:14:08;;;;;;;13.10;2.80;;;16.50;99.90;;;;;;4993104;28;20297;-64
2021/12/24 08:16:35;;;;;;;6.43;2.70;;;16.50;97.50;;;;;;4975647;28;20332;-67
2021/12/24 08:19:02;;;;;;;8.00;2.53;;;15.90;97.70;;;;;;4992900;28;20121;-66
2021/12/24 08:21:29;;;;;;;6.90;2.55;;;15.50;98.70;;;;;;4993047;28;20382;-67
2021/12/24 08:23:55;;;;;;;6.97;2.22;;;15.50;99.00;;;;;;4992867;28;20037;-66
2021/12/24 08:26:21;;;;;;;9.13;2.53;;;15.60;99.10;;;;;;4993173;28;20098;-67
2021/12/24 08:28:49;;;;;;;6.77;2.50;;;15.60;99.00;;;;;;4992872;28;20026;-67
2021/12/24 08:31:16;;;;;;;6.03;1.90;;;15.40;99.30;;;;;;4992794;28;20038;-66
2021/12/24 08:33:42;;;;;;;;;;;15.30;99.90;;;;;;4992880;28;20448;-66
2021/12/24 08:36:09;;;;;;;8.27;2.88;;;15.30;99.90;;;;;;4993010;28;20378;-67
2021/12/24 08:38:34;;;;;;;;;;;15.40;99.90;;;;;;4993498;28;20109;-67
2021/12/24 08:41:01;;;;;;;7.43;3.15;;;15.60;99.90;;;;;;4992576;28;19960;-69
2021/12/24 08:43:27;;;;;;;7.10;2.20;;;15.80;99.90;;;;;;4992457;28;20034;-68
2021/12/24 08:45:53;;;;;;;5.47;2.00;;;16.00;99.90;;;;;;4991860;28;20018;-68
2021/12/24 08:48:20;;;;;;;5.72;2.63;;;16.20;99.90;;;;;;4991866;28;20034;-68
2021/12/24 08:50:46;;;;;;;16.58;8.10;;;16.40;99.90;;;;;;4992252;28;20434;-68
2021/12/24 08:53:13;;;;;;;6.28;3.70;;;16.60;99.60;;;;;;4974515;28;20408;-68
2021/12/24 08:55:39;;;;;;;9.65;4.47;;;16.90;99.90;;;;;;4991891;28;20022;-69
2021/12/24 08:58:05;;;;;;;6.68;3.05;;;17.10;99.20;;;;;;4992061;28;20050;-68
2021/12/24 09:00:33;;;;;;;7.57;2.88;;;16.70;99.90;;;;;;4992118;28;20085;-68
2021/12/24 09:03:01;;;;;;;8.18;3.40;;;16.80;99.80;;;;;;4992353;28;20034;-67
2021/12/24 09:05:28;;;;;;;7.10;3.30;;;17.00;99.50;;;;;;4992193;28;20038;-67
2021/12/24 09:07:55;;;;;;;5.65;3.00;;;17.10;99.20;;;;;;4975320;28;20030;-68
2021/12/24 09:10:24;;;;;;;7.15;2.42;;;17.30;98.80;;;;;;4992878;28;20035;-70
2021/12/24 09:12:51;;;;;;;9.80;2.17;;;17.40;99.80;;;;;;4992168;28;20117;-68
2021/12/24 09:15:19;;;;;;;7.20;1.90;;;16.90;99.50;;;;;;4974912;28;20034;-69
2021/12/24 09:17:47;;;;;;;12.30;2.05;;;16.80;99.60;;;;;;4992250;28;20444;-68
2021/12/24 09:20:24;;;;;;;7.32;2.17;;;16.60;99.40;;;;;;4992416;28;20045;-68
2021/12/24 09:22:52;;;;;;;10.43;1.97;;;16.50;99.80;;;;;;4993076;28;20023;-67
2021/12/24 09:25:19;;;;;;;6.07;1.70;;;16.40;99.90;;;;;;4974975;28;20039;-67
2021/12/24 09:27:45;;;;;;;4.22;1.60;;;16.40;99.90;;;;;;4992262;28;20057;-68
2021/12/24 09:30:13;;;;;;;4.40;1.70;;;16.60;99.90;;;;;;4990881;28;20088;-66
2021/12/24 09:32:39;;;;;;;7.25;1.80;;;16.60;99.90;;;;;;4992019;28;20168;-67
2021/12/24 09:35:07;;;;;;;5.55;2.10;;;16.40;99.90;;;;;;4990728;28;20088;-67
2021/12/24 09:37:33;;;;;;;6.60;1.80;;;16.40;99.90;;;;;;4992433;28;20023;-67
2021/12/24 09:40:01;;;;;;;8.23;2.80;;;16.60;99.90;;;;;;4992289;28;20101;-69
2021/12/24 09:42:29;;;;;;;9.15;1.70;;;16.80;99.90;;;;;;4992174;28;20027;-70
2021/12/24 09:44:56;;;;;;;6.47;1.67;;;17.00;99.90;;;;;;4991833;28;20084;-68
2021/12/24 09:47:23;;;;;;;5.05;1.73;;;17.00;99.90;;;;;;4992006;28;20085;-68
2021/12/24 09:49:49;;;;;;;8.68;2.22;;;17.20;99.70;;;;;;4992095;28;20052;-67
2021/12/24 09:52:17;;;;;;;4.57;1.40;;;16.80;99.90;;;;;;4992373;28;20018;-68
2021/12/24 09:54:47;;;;;;;6.20;1.58;;;16.80;99.90;;;;;;5009068;28;20062;-67
2021/12/24 09:57:14;;;;;;;5.03;1.92;;;17.00;99.80;;;;;;5011702;28;20398;-69
2021/12/24 09:59:41;;;;;;;8.95;1.55;;;17.10;99.90;;;;;;5014848;28;20030;-67
2021/12/24 10:02:16;;;;;;;;;;;17.30;99.90;;;;;;5015485;28;20022;-68
2021/12/24 10:04:50;;;;;;;5.68;1.27;;;17.60;99.60;;;;;;5014960;28;19996;-68
2021/12/24 10:07:17;;;;;;;5.05;1.35;;;17.50;98.50;;;;;;5014773;28;20022;-68
2021/12/24 10:09:49;;;;;;;2.30;1.13;;;17.30;99.90;;;;;;5014669;28;20033;-67
2021/12/24 10:12:24;;;;;;;8.65;1.85;;;17.20;99.90;;;;;;5014907;28;20029;-68
2021/12/24 10:15:01;;;;;;;2.60;0.98;;;17.50;99.70;;;;;;4997632;28;20520;-68
2021/12/24 10:17:30;;;;;;;5.55;1.88;;;17.70;99.10;;;;;;5015076;28;20458;-68
2021/12/24 10:20:00;;;;;;;7.40;1.90;;;18.00;99.30;;;;;;5013399;28;20046;-68
2021/12/24 10:22:26;;;;;;;7.38;1.90;;;18.10;99.10;;;;;;5014853;28;20030;-68
2021/12/24 10:25:07;;;;;;;5.75;1.40;;;18.50;98.90;;;;;;5014703;28;20103;-68
2021/12/24 10:27:35;;;;;;;7.10;1.58;;;18.80;97.70;;;;;;5015112;28;20558;-65
2021/12/24 10:30:32;;;;;;;8.95;1.40;;;18.80;99.20;;;;;;5014783;28;20033;-65
2021/12/24 10:33:09;;;;;;;6.93;1.40;;;18.90;97.70;;;;;;5014514;28;20066;-68
2021/12/24 10:35:35;;;;;;;;;;;19.10;96.50;;;;;;5015002;28;20044;-68
2021/12/24 10:38:16;;;;;;;8.10;1.60;;;19.00;97.30;;;;;;5014788;28;20315;-68
2021/12/24 10:40:50;;;;;;;9.45;2.30;;;18.90;98.20;;;;;;5014437;28;20033;-69
2021/12/24 10:43:30;;;;;;;12.48;2.25;;;18.90;98.00;;;;;;5014727;28;20064;-68
2021/12/24 10:46:16;;;;;;;10.35;2.30;;;18.90;97.80;;;;;;5014299;28;20095;-68
2021/12/24 10:49:13;;;;;;;5.07;1.73;;;18.80;98.30;;;;;;5014292;28;20565;-68
2021/12/24 10:52:00;;;;;;;3.30;1.15;;;18.70;97.70;;;;;;5014133;28;20034;-68
2021/12/24 10:54:27;;;;;;;7.00;2.30;;;18.90;97.70;;;;;;5013932;28;20143;-69
2021/12/24 10:56:55;;;;;;;4.75;1.38;;;18.90;97.70;;;;;;5012827;28;20073;-68
2021/12/24 10:59:49;;;;;;;3.47;1.10;;;18.90;97.90;;;;;;5012928;28;20111;-68
2021/12/24 11:02:16;;;;;;;7.20;1.65;;;19.00;97.50;;;;;;5010423;28;20037;-68
2021/12/24 11:04:42;;;;;;;3.65;1.17;;;19.30;97.50;;;;;;5014290;28;20022;-68
2021/12/24 11:07:38;;;;;;;4.13;1.60;;;19.30;98.00;;;;;;5014033;28;20050;-68
2021/12/24 11:10:13;;;;;;;4.40;1.60;;;18.80;96.90;;;;;;5012737;28;20025;-68
2021/12/24 11:12:47;;;;;;;3.72;1.10;;;18.80;98.10;;;;;;5014108;28;20117;-68
2021/12/24 11:15:35;;;;;;;3.35;1.27;;;19.10;97.30;;;;;;5014357;28;20510;-68
2021/12/24 11:18:04;;;;;;;5.20;1.80;;;18.80;97.50;;;;;;5014267;28;20117;-68
2021/12/24 11:20:31;;;;;;;6.32;1.33;;;18.70;98.10;;;;;;5013915;28;20557;-68
2021/12/24 11:23:11;;;;;;;4.53;1.30;;;18.90;99.20;;;;;;5013983;28;20462;-68
2021/12/24 11:25:42;;;;;;;3.67;1.25;;;18.90;98.70;;;;;;5013828;28;20022;-68
2021/12/24 11:28:10;;;;;;;9.25;1.63;;;18.90;97.80;;;;;;5014177;28;20045;-68
2021/12/24 11:30:49;;;;;;;6.93;1.25;;;19.00;97.80;;;;;;5012152;28;20045;-67
2021/12/24 11:33:19;;;;;;;7.30;1.30;;;19.00;97.80;;;;;;5013115;28;20038;-67
2021/12/24 11:35:47;;;;;;;4.22;1.65;;;19.20;97.90;;;;;;5013122;28;20121;-68
2021/12/24 11:38:15;;;;;;;5.25;1.70;;;19.40;98.10;;;;;;5013222;28;20022;-68
2021/12/24 11:40:44;;;;;;;9.40;1.70;;;19.30;97.70;;;;;;5013340;28;20030;-68
2021/12/24 11:43:11;;;;;;;9.38;1.50;;;19.40;97.80;;;;;;5013431;28;20025;-68
2021/12/24 11:45:38;;;;;;;5.32;1.60;;;19.30;97.90;;;;;;4995304;28;20026;-68
2021/12/24 11:48:06;;;;;;;4.97;1.50;;;19.40;97.90;;;;;;5013247;28;20034;-67
2021/12/24 11:50:33;;;;;;;5.90;2.00;;;19.50;98.20;;;;;;4995972;28;20140;-67
2021/12/24 11:53:03;;;;;;;4.57;1.30;;;19.80;97.50;;;;;;5012687;28;20128;-69
2021/12/24 11:55:38;;;;;;;6.65;1.55;;;20.00;97.30;;;;;;5013341;28;20048;-68
2021/12/24 11:58:09;;;;;;;;;;;19.90;97.50;;;;;;5013138;28;20026;-67
2021/12/24 12:00:40;;;;;;;5.30;1.60;;;19.00;98.90;;;;;;5012613;28;19906;-68
2021/12/24 12:03:10;;;;;;;4.80;1.60;;;18.90;99.70;;;;;;5013104;28;20028;-67
2021/12/24 12:05:41;;;;;;;3.65;1.80;;;18.90;98.90;;;;;;5012821;28;20041;-68
2021/12/24 12:08:25;;;;;;;4.97;1.50;;;18.90;99.60;;;;;;5012975;28;20116;-68
2021/12/24 12:10:59;;;;;;;5.80;1.48;;;19.10;99.40;;;;;;5012681;28;20117;-67
2021/12/24 12:13:55;;;;;;;11.13;5.85;;;19.10;98.70;;;;;;5012411;28;20159;-69
2021/12/24 12:16:43;;;;;;;4.25;1.92;;;19.40;99.90;;;;;;5011397;28;20552;-67
2021/12/24 12:19:46;;;;;;;12.13;4.65;;;19.60;97.90;;;;;;5013018;28;20335;-68
2021/12/24 12:25:32;;;;;;;105.65;56.42;;;20.00;97.60;;;;;;5012495;28;20137;-68
2021/12/24 12:28:20;;;;;;;10.80;3.10;;;19.80;98.00;;;;;;5012196;28;20080;-67
2021/12/24 12:30:52;;;;;;;4.88;1.60;;;20.10;97.10;;;;;;5012002;28;20105;-68
2021/12/24 12:33:34;;;;;;;5.35;1.70;;;20.00;97.10;;;;;;5011518;28;20108;-68
2021/12/24 12:36:04;;;;;;;7.57;2.78;;;19.50;98.20;;;;;;5010551;28;20029;-67
2021/12/24 12:38:46;;;;;;;6.72;1.75;;;19.60;98.60;;;;;;5008432;28;20029;-67
2021/12/24 12:41:38;;;;;;;29.90;7.03;;;19.30;98.30;;;;;;5006361;28;20030;-66
2021/12/24 12:44:15;;;;;;;13.27;4.45;;;19.00;99.10;;;;;;5011596;28;20025;-68
2021/12/24 12:46:46;;;;;;;8.57;3.28;;;18.90;99.40;;;;;;5011961;28;20108;-67
2021/12/24 12:49:16;;;;;;;5.95;1.75;;;18.70;99.70;;;;;;5011627;28;20042;-67
2021/12/24 12:51:59;;;;;;;6.82;2.67;;;18.70;99.30;;;;;;5011780;28;20042;-68
2021/12/24 12:54:48;;;;;;;8.02;2.03;;;18.60;99.80;;;;;;5011535;28;20064;-67
2021/12/24 12:57:36;;;;;;;7.15;2.25;;;18.30;99.90;;;;;;5011667;28;20070;-64
2021/12/24 13:00:12;;;;;;;4.30;2.20;;;18.50;99.90;;;;;;5009232;28;20334;-67
2021/12/24 13:02:57;;;;;;;4.75;2.20;;;18.60;99.90;;;;;;5012071;28;20114;-65
2021/12/24 13:05:34;;;;;;;7.45;3.03;;;18.70;99.90;;;;;;4992665;28;20030;-66
2021/12/24 13:08:16;;;;;;;6.90;1.88;;;18.50;99.90;;;;;;4974606;28;20387;-64
2021/12/24 13:10:56;;;;;;;3.38;1.63;;;18.40;99.90;;;;;;5029463;28;20029;-63
2021/12/24 13:13:22;;;;;;;6.72;3.45;;;18.50;99.90;;;;;;5031415;28;20449;-67
2021/12/24 13:15:48;;;;;;;5.00;2.10;;;18.50;99.90;;;;;;4995953;28;20549;-67
2021/12/24 13:18:26;;;;;;;4.40;2.10;;;18.70;99.90;;;;;;5011752;28;20034;-64
2021/12/24 13:23:37;;;;;;;5.35;2.28;;;18.90;99.90;;;;;;5011283;28;20026;-66
2021/12/24 13:26:12;;;;;;;3.80;1.30;;;18.90;99.30;;;;;;5011661;28;20034;-67
2021/12/24 13:29:12;;;;;;;3.47;1.25;;;18.80;99.30;;;;;;5001346;28;20038;-63
2021/12/24 13:31:41;;;;;;;5.53;1.63;;;18.70;99.90;;;;;;4992285;28;20088;-69
2021/12/24 13:34:13;;;;;;;5.88;1.58;;;18.70;98.70;;;;;;4995333;28;20459;-67
2021/12/24 13:36:39;;;;;;;6.38;2.47;;;18.50;98.90;;;;;;4996299;28;20022;-67
2021/12/24 13:39:10;;;;;;;7.57;1.70;;;18.00;99.90;;;;;;4994775;28;20026;-66
2021/12/24 13:41:37;;;;;;;6.40;2.40;;;18.20;99.90;;;;;;4994127;28;20030;-63
2021/12/24 13:44:05;;;;;;;5.13;2.10;;;18.20;99.90;;;;;;4995541;28;20031;-62
2021/12/24 13:46:35;;;;;;;6.68;2.63;;;18.30;99.90;;;;;;4980453;28;20029;-62
2021/12/24 13:49:37;;;;;;;4.57;1.90;;;18.40;99.90;;;;;;5015259;28;20092;-62
2021/12/24 13:54:49;;;;;;;7.43;2.88;;;18.50;99.90;;;;;;5034959;28;20488;-63
2021/12/24 13:57:22;;;;;;;8.07;2.15;;;18.50;99.90;;;;;;5017309;28;20037;-67
2021/12/24 13:59:52;;;;;;;5.60;2.50;;;18.50;99.90;;;;;;5034812;28;20025;-63
2021/12/24 14:02:20;;;;;;;6.75;2.38;;;18.50;99.90;;;;;;5016804;28;20025;-63
2021/12/24 14:04:46;;;;;;;4.75;1.80;;;18.60;99.80;;;;;;5015118;28;20570;-64
2021/12/24 14:07:12;;;;;;;4.00;1.85;;;18.60;99.90;;;;;;5015111;28;20022;-67
2021/12/24 14:09:39;;;;;;;6.30;2.40;;;18.60;99.90;;;;;;5014893;28;20336;-65
2021/12/24 14:12:07;;;;;;;7.60;1.70;;;18.30;99.90;;;;;;4980849;28;20033;-68
2021/12/24 14:15:05;;;;;;;11.13;2.22;;;18.30;99.90;;;;;;5012384;28;20112;-63
2021/12/24 14:17:51;;;;;;;4.63;1.63;;;18.40;99.90;;;;;;5000430;28;20029;-66
2021/12/24 14:20:37;;;;;;;8.45;2.70;;;18.50;99.90;;;;;;5010494;28;20048;-66
2021/12/24 14:23:16;;;;;;;9.70;3.53;;;18.70;99.90;;;;;;5014845;28;20549;-67
2021/12/24 14:25:54;;;;;;;5.97;2.40;;;18.70;99.90;;;;;;5014007;28;20029;-67
2021/12/24 14:28:22;;;;;;;5.95;2.85;;;18.60;99.90;;;;;;5008775;28;20106;-67
2021/12/24 14:30:48;;;;;;;4.15;2.20;;;18.60;99.90;;;;;;5013898;28;20097;-67
2021/12/24 14:33:14;;;;;;;4.90;1.90;;;18.60;99.90;;;;;;5013996;28;20052;-69
2021/12/24 14:35:44;;;;;;;4.05;2.00;;;18.30;99.90;;;;;;5014261;28;20025;-68
2021/12/24 14:38:15;;;;;;;3.90;1.67;;;18.10;99.90;;;;;;4995983;28;20038;-68
2021/12/24 14:40:41;;;;;;;5.50;2.10;;;17.90;99.90;;;;;;5013743;28;20449;-68
2021/12/24 14:43:17;;;;;;;5.60;2.17;;;17.70;99.90;;;;;;5014252;28;20037;-67